TLPC/SLU METAR and TAF weather

Enter ICAO airport designator
Station Type Date Time Source
TLPC METAR 2020/02/20 18:00 UTC NOAA

TLPC 201800Z 09009KT 9999 SCT027 29/20 Q1013 NOSIG


Station Type Date Time Source
TLPC Decoded METAR 2020/02/20 18:00 UTC NOAA

Vigie, Saint Lucia (TLPC) 14-01N 061-00W 2M
Feb 20, 2020 - 01:00 PM EST / 2020.02.20 1800 UTC
Wind: from the E (090 degrees) at 10 MPH (9 KT):0
Visibility: greater than 7 mile(s):0
Sky conditions: partly cloudy
Temperature: 84 F (29 C)
Dew Point: 68 F (20 C)
Relative Humidity: 58%
Pressure (altimeter): 29.91 in. Hg (1013 hPa)
ob: TLPC 201800Z 09009KT 9999 SCT027 29/20 Q1013 NOSIG
cycle: 18

Station Type Date Time Source
TLPC TAF 2020/02/20 18:59 UTC NOAA

TAF TLPC 201700Z 2018/2118 08009G24KT 9999 SCT024 SCT042
TEMPO 2106/2112 SHRA BKN015

Example: see airport list